Time;durP1;ratioP1;P1;durP2;ratioP2;P2;SDS_P1;SDS_P2;PMS_P1;PMS_P2;Temp;Humidity;BMP_temperature;BMP_pressure;BME280_temperature;BME280_humidity;BME280_pressure;Samples;Min_cycle;Max_cycle;Signal;HPM_P1;HPM_P2
2020/04/16 00:00:28;;;;;;;1.65;1.55;;;;;;;19.11;33.87;100836.78;;;;-56
2020/04/16 00:03:28;;;;;;;2.05;1.70;;;;;;;19.10;33.88;100833.94;;;;-57
2020/04/16 00:09:28;;;;;;;1.60;1.50;;;;;;;19.09;33.92;100832.55;;;;-57
2020/04/16 00:12:28;;;;;;;1.73;1.63;;;;;;;19.08;33.88;100830.15;;;;-57
2020/04/16 00:15:28;;;;;;;1.63;1.53;;;;;;;19.07;33.90;100830.37;;;;-57
2020/04/16 00:18:29;;;;;;;2.30;1.66;;;;;;;19.07;33.96;100824.52;;;;-56
2020/04/16 00:21:28;;;;;;;1.70;1.60;;;;;;;19.07;33.94;100817.45;;;;-56
2020/04/16 00:24:28;;;;;;;1.87;1.65;;;;;;;19.06;33.91;100813.20;;;;-56
2020/04/16 00:27:28;;;;;;;1.65;1.55;;;;;;;19.06;33.93;100818.50;;;;-57
2020/04/16 00:30:29;;;;;;;1.87;1.68;;;;;;;19.04;33.91;100812.31;;;;-57
2020/04/16 00:33:28;;;;;;;1.79;1.63;;;;;;;19.05;33.92;100812.58;;;;-56
2020/04/16 00:36:28;;;;;;;1.69;1.59;;;;;;;19.03;33.94;100813.33;;;;-57
2020/04/16 00:39:29;;;;;;;1.89;1.64;;;;;;;19.03;33.95;100813.99;;;;-56
2020/04/16 00:42:29;;;;;;;1.91;1.59;;;;;;;19.03;33.92;100816.44;;;;-57
2020/04/16 00:45:28;;;;;;;2.16;1.63;;;;;;;19.02;33.96;100814.55;;;;-57
2020/04/16 00:48:28;;;;;;;1.63;1.52;;;;;;;19.01;33.94;100814.48;;;;-56
2020/04/16 00:51:28;;;;;;;1.70;1.60;;;;;;;19.00;33.93;100812.33;;;;-57
2020/04/16 00:54:28;;;;;;;1.70;1.60;;;;;;;19.00;33.95;100807.07;;;;-57
2020/04/16 00:57:28;;;;;;;2.03;1.57;;;;;;;18.99;33.96;100808.27;;;;-57
2020/04/16 01:00:28;;;;;;;1.98;1.75;;;;;;;18.99;33.93;100806.42;;;;-57
2020/04/16 01:03:28;;;;;;;1.81;1.65;;;;;;;18.99;33.95;100801.66;;;;-57
2020/04/16 01:07:19;;;;;;;1.68;1.58;;;;;;;18.99;33.98;100797.38;;;;-57
2020/04/16 01:10:28;;;;;;;1.60;1.50;;;;;;;18.98;33.94;100793.75;;;;-57
2020/04/16 01:13:28;;;;;;;1.71;1.61;;;;;;;18.97;33.98;100792.75;;;;-57
2020/04/16 01:16:28;;;;;;;1.75;1.65;;;;;;;18.96;33.98;100793.37;;;;-57
2020/04/16 01:19:29;;;;;;;1.67;1.56;;;;;;;18.95;33.98;100794.44;;;;-57
2020/04/16 01:22:28;;;;;;;1.71;1.60;;;;;;;18.95;33.98;100799.45;;;;-57
2020/04/16 01:25:28;;;;;;;1.69;1.55;;;;;;;18.94;33.98;100797.39;;;;-56
2020/04/16 01:28:28;;;;;;;1.78;1.68;;;;;;;18.95;34.01;100800.18;;;;-56
2020/04/16 01:31:28;;;;;;;1.99;1.79;;;;;;;18.95;33.95;100797.00;;;;-57
2020/04/16 01:34:28;;;;;;;1.70;1.44;;;;;;;18.94;33.97;100792.93;;;;-57
2020/04/16 01:37:28;;;;;;;1.60;1.50;;;;;;;18.92;34.01;100789.27;;;;-57
2020/04/16 01:40:28;;;;;;;1.95;1.68;;;;;;;18.93;33.98;100791.04;;;;-57
2020/04/16 01:43:28;;;;;;;1.75;1.61;;;;;;;18.93;34.00;100793.37;;;;-57
2020/04/16 01:46:28;;;;;;;1.88;1.50;;;;;;;18.92;33.98;100793.78;;;;-57
2020/04/16 01:49:28;;;;;;;1.80;1.70;;;;;;;18.91;33.99;100793.22;;;;-56
2020/04/16 01:52:29;;;;;;;1.81;1.51;;;;;;;18.91;34.02;100797.73;;;;-56
2020/04/16 01:55:29;;;;;;;1.73;1.63;;;;;;;18.90;34.01;100797.36;;;;-57
2020/04/16 01:58:28;;;;;;;1.73;1.60;;;;;;;18.90;33.98;100800.80;;;;-56
2020/04/16 02:01:28;;;;;;;1.80;1.70;;;;;;;18.89;33.98;100797.90;;;;-57
2020/04/16 02:04:28;;;;;;;1.85;1.53;;;;;;;18.89;33.98;100794.55;;;;-57
2020/04/16 02:07:28;;;;;;;1.84;1.61;;;;;;;18.88;34.00;100793.00;;;;-56
2020/04/16 02:10:28;;;;;;;1.87;1.61;;;;;;;18.88;34.01;100795.17;;;;-57
2020/04/16 02:13:28;;;;;;;1.69;1.59;;;;;;;18.88;33.99;100797.47;;;;-57
2020/04/16 02:16:28;;;;;;;1.78;1.63;;;;;;;18.88;34.00;100794.56;;;;-57
2020/04/16 02:19:28;;;;;;;1.95;1.65;;;;;;;18.87;34.01;100798.47;;;;-57
2020/04/16 02:22:28;;;;;;;1.76;1.49;;;;;;;18.87;34.01;100791.67;;;;-56
2020/04/16 02:25:28;;;;;;;1.69;1.59;;;;;;;18.86;34.01;100793.33;;;;-57
2020/04/16 02:28:28;;;;;;;1.71;1.61;;;;;;;18.86;33.98;100793.06;;;;-57
2020/04/16 02:31:28;;;;;;;1.93;1.55;;;;;;;18.85;34.02;100791.10;;;;-57
2020/04/16 02:34:28;;;;;;;1.67;1.57;;;;;;;18.85;34.03;100787.72;;;;-57
2020/04/16 02:37:28;;;;;;;1.70;1.60;;;;;;;18.84;34.02;100783.19;;;;-57
2020/04/16 02:46:28;;;;;;;1.85;1.66;;;;;;;18.84;34.01;100785.88;;;;-57
2020/04/16 02:49:28;;;;;;;1.65;1.52;;;;;;;18.82;34.03;100791.45;;;;-57
2020/04/16 02:52:28;;;;;;;1.53;1.43;;;;;;;18.82;34.00;100790.45;;;;-57
2020/04/16 02:55:28;;;;;;;1.74;1.61;;;;;;;18.82;34.03;100795.15;;;;-56
2020/04/16 02:58:28;;;;;;;2.06;1.60;;;;;;;18.81;34.04;100792.97;;;;-57
2020/04/16 03:01:28;;;;;;;1.76;1.50;;;;;;;18.80;34.03;100793.02;;;;-56
2020/04/16 03:04:28;;;;;;;1.63;1.53;;;;;;;18.80;34.05;100791.68;;;;-56
2020/04/16 03:07:28;;;;;;;2.41;1.70;;;;;;;18.79;34.02;100795.31;;;;-57
2020/04/16 03:10:28;;;;;;;1.70;1.59;;;;;;;18.79;34.03;100793.13;;;;-57
2020/04/16 03:13:28;;;;;;;1.83;1.52;;;;;;;18.78;34.06;100783.38;;;;-56
2020/04/16 03:16:28;;;;;;;1.51;1.41;;;;;;;18.78;34.04;100786.44;;;;-57
2020/04/16 03:19:28;;;;;;;1.71;1.60;;;;;;;18.77;34.04;100781.88;;;;-57
2020/04/16 03:22:28;;;;;;;1.61;1.51;;;;;;;18.76;34.04;100778.71;;;;-56
2020/04/16 03:25:28;;;;;;;1.79;1.65;;;;;;;18.75;34.05;100775.36;;;;-55
2020/04/16 03:28:28;;;;;;;1.99;1.70;;;;;;;18.75;34.06;100775.64;;;;-57
2020/04/16 03:31:28;;;;;;;1.69;1.59;;;;;;;18.75;34.02;100774.91;;;;-56
2020/04/16 03:34:28;;;;;;;1.91;1.60;;;;;;;18.75;34.04;100776.65;;;;-57
2020/04/16 03:37:28;;;;;;;1.87;1.73;;;;;;;18.75;34.06;100775.58;;;;-57
2020/04/16 03:40:28;;;;;;;9.01;8.29;;;;;;;18.74;34.06;100784.17;;;;-56
2020/04/16 03:43:28;;;;;;;14.46;13.38;;;;;;;18.75;34.07;100780.26;;;;-57
2020/04/16 03:46:28;;;;;;;9.77;9.03;;;;;;;18.76;34.08;100784.50;;;;-57
2020/04/16 03:49:28;;;;;;;3.53;3.24;;;;;;;18.76;34.13;100784.44;;;;-57
2020/04/16 03:52:28;;;;;;;62.77;58.21;;;;;;;18.78;34.13;100782.54;;;;-55
2020/04/16 03:55:28;;;;;;;47.96;44.46;;;;;;;18.80;34.13;100783.88;;;;-56
2020/04/16 03:58:28;;;;;;;24.93;23.14;;;;;;;18.82;34.12;100789.23;;;;-57
2020/04/16 04:01:28;;;;;;;12.24;11.37;;;;;;;18.84;34.11;100785.82;;;;-56
2020/04/16 04:04:28;;;;;;;27.13;25.17;;;;;;;18.86;34.10;100782.64;;;;-57
2020/04/16 04:07:28;;;;;;;68.04;63.13;;;;;;;18.88;34.14;100782.45;;;;-57
2020/04/16 04:10:28;;;;;;;5.39;5.03;;;;;;;18.91;34.17;100780.39;;;;-56
2020/04/16 04:13:28;;;;;;;4.81;4.47;;;;;;;18.93;34.18;100779.77;;;;-57
2020/04/16 04:16:28;;;;;;;26.03;24.06;;;;;;;18.95;34.19;100779.87;;;;-56
2020/04/16 04:19:28;;;;;;;72.45;67.17;;;;;;;18.97;34.21;100776.30;;;;-57
2020/04/16 04:22:28;;;;;;;1.63;1.53;;;;;;;19.00;34.20;100772.09;;;;-57
2020/04/16 04:25:28;;;;;;;1.65;1.55;;;;;;;19.02;34.21;100775.27;;;;-56
2020/04/16 04:28:28;;;;;;;1.59;1.49;;;;;;;19.04;34.19;100780.00;;;;-57
2020/04/16 04:31:28;;;;;;;65.94;60.55;;;;;;;19.07;34.00;100782.72;;;;-56
2020/04/16 04:34:28;;;;;;;36.19;33.08;;;;;;;19.08;34.01;100787.62;;;;-56
2020/04/16 04:37:28;;;;;;;21.60;19.93;;;;;;;19.08;34.16;100790.92;;;;-57
2020/04/16 04:40:28;;;;;;;1.56;1.46;;;;;;;19.09;34.14;100786.25;;;;-57
2020/04/16 04:43:28;;;;;;;44.96;41.59;;;;;;;19.10;34.07;100786.00;;;;-56
2020/04/16 04:46:43;;;;;;;66.09;61.20;;;;;;;19.11;34.09;100780.98;;;;-56
2020/04/16 04:49:29;;;;;;;66.26;61.31;;;;;;;19.12;34.13;100782.98;;;;-57
2020/04/16 04:52:28;;;;;;;58.81;54.55;;;;;;;19.12;34.06;100786.73;;;;-56
2020/04/16 04:55:28;;;;;;;71.87;66.59;;;;;;;19.13;34.08;100795.05;;;;-56
2020/04/16 04:58:28;;;;;;;92.86;85.93;;;;;;;19.14;34.08;100800.27;;;;-56
2020/04/16 05:01:28;;;;;;;18.70;17.29;;;;;;;19.13;34.06;100793.81;;;;-57
2020/04/16 05:04:28;;;;;;;2.06;1.57;;;;;;;19.14;34.03;100798.92;;;;-56
2020/04/16 05:07:28;;;;;;;1.79;1.67;;;;;;;19.14;34.04;100803.66;;;;-56
2020/04/16 05:10:29;;;;;;;2.86;1.74;;;;;;;19.14;34.02;100801.70;;;;-56
2020/04/16 05:13:28;;;;;;;2.85;1.79;;;;;;;19.14;34.08;100805.95;;;;-56
2020/04/16 05:16:28;;;;;;;36.71;33.93;;;;;;;19.14;34.05;100806.45;;;;-56
2020/04/16 05:19:28;;;;;;;63.61;58.93;;;;;;;19.13;34.04;100801.42;;;;-56
2020/04/16 05:22:28;;;;;;;1.97;1.60;;;;;;;19.14;34.04;100807.19;;;;-56
2020/04/16 05:25:29;;;;;;;1.74;1.57;;;;;;;19.13;34.02;100810.89;;;;-56
2020/04/16 05:28:28;;;;;;;55.34;51.23;;;;;;;19.13;34.02;100820.52;;;;-57
2020/04/16 05:31:28;;;;;;;4.40;4.09;;;;;;;19.13;34.07;100827.27;;;;-56
2020/04/16 05:34:28;;;;;;;1.60;1.50;;;;;;;19.13;34.03;100826.69;;;;-57
2020/04/16 05:37:28;;;;;;;6.14;5.64;;;;;;;19.12;34.03;100829.53;;;;-56
2020/04/16 05:40:28;;;;;;;84.74;78.52;;;;;;;19.12;34.03;100820.31;;;;-56
2020/04/16 05:43:28;;;;;;;1.75;1.52;;;;;;;19.11;34.07;100821.61;;;;-57
2020/04/16 05:46:28;;;;;;;2.89;2.70;;;;;;;19.11;34.04;100829.92;;;;-56
2020/04/16 05:49:35;;;;;;;18.69;17.29;;;;;;;19.12;33.92;100838.73;;;;-56
2020/04/16 05:52:37;;;;;;;51.11;47.42;;;;;;;19.11;33.85;100840.85;;;;-57
2020/04/16 05:55:28;;;;;;;1.85;1.61;;;;;;;19.10;33.83;100837.73;;;;-56
2020/04/16 05:58:28;;;;;;;2.74;1.77;;;;;;;19.09;33.92;100840.36;;;;-55
2020/04/16 06:01:28;;;;;;;2.09;1.76;;;;;;;19.09;33.96;100836.30;;;;-56
2020/04/16 06:04:28;;;;;;;1.63;1.53;;;;;;;19.09;33.94;100838.69;;;;-56
2020/04/16 06:07:28;;;;;;;2.45;1.70;;;;;;;19.09;33.99;100840.15;;;;-56
2020/04/16 06:10:28;;;;;;;1.59;1.49;;;;;;;19.09;33.98;100833.88;;;;-57
2020/04/16 06:13:28;;;;;;;1.95;1.69;;;;;;;19.08;34.00;100845.79;;;;-56
2020/04/16 06:16:28;;;;;;;1.70;1.60;;;;;;;19.07;34.02;100831.17;;;;-55
2020/04/16 06:19:28;;;;;;;1.91;1.64;;;;;;;19.07;34.00;100840.31;;;;-56
2020/04/16 06:22:28;;;;;;;2.25;1.63;;;;;;;19.07;34.02;100841.55;;;;-55
2020/04/16 06:25:28;;;;;;;1.69;1.59;;;;;;;19.06;34.00;100841.70;;;;-56
2020/04/16 06:28:28;;;;;;;1.73;1.63;;;;;;;19.06;34.02;100833.57;;;;-56
2020/04/16 06:31:28;;;;;;;2.01;1.72;;;;;;;19.06;34.01;100842.67;;;;-56
2020/04/16 06:34:28;;;;;;;1.75;1.65;;;;;;;19.05;34.00;100839.14;;;;-56
2020/04/16 06:37:28;;;;;;;1.71;1.61;;;;;;;19.05;34.05;100838.03;;;;-56
2020/04/16 06:40:28;;;;;;;1.86;1.70;;;;;;;19.05;34.04;100838.14;;;;-57
2020/04/16 06:43:28;;;;;;;1.96;1.75;;;;;;;19.04;34.04;100838.14;;;;-57
2020/04/16 06:46:28;;;;;;;1.82;1.63;;;;;;;19.04;34.02;100839.65;;;;-56
2020/04/16 06:49:28;;;;;;;2.14;1.71;;;;;;;19.03;34.03;100829.33;;;;-56
2020/04/16 06:52:28;;;;;;;1.83;1.70;;;;;;;19.03;34.00;100834.36;;;;-56
2020/04/16 06:55:28;;;;;;;1.88;1.60;;;;;;;19.02;34.01;100833.86;;;;-57
2020/04/16 06:58:28;;;;;;;2.03;1.79;;;;;;;19.02;34.03;100836.03;;;;-56
2020/04/16 07:01:28;;;;;;;2.25;1.93;;;;;;;19.01;34.04;100827.72;;;;-56
2020/04/16 07:04:28;;;;;;;2.01;1.79;;;;;;;19.02;34.06;100823.98;;;;-57
2020/04/16 07:07:28;;;;;;;1.93;1.73;;;;;;;19.01;34.06;100823.43;;;;-57
2020/04/16 07:10:28;;;;;;;66.92;61.99;;;;;;;19.00;34.08;100826.22;;;;-57
2020/04/16 07:13:28;;;;;;;23.26;21.58;;;;;;;19.00;34.05;100822.98;;;;-56
2020/04/16 07:16:28;;;;;;;54.63;50.65;;;;;;;19.01;34.01;100821.25;;;;-56
2020/04/16 07:19:28;;;;;;;63.01;58.38;;;;;;;18.99;34.02;100828.62;;;;-56
2020/04/16 07:22:28;;;;;;;1.99;1.79;;;;;;;18.99;34.06;100817.23;;;;-57
2020/04/16 07:25:28;;;;;;;1.87;1.70;;;;;;;18.98;34.05;100818.08;;;;-56
2020/04/16 07:28:28;;;;;;;1.99;1.65;;;;;;;18.98;34.02;100816.17;;;;-56
2020/04/16 07:31:28;;;;;;;1.85;1.71;;;;;;;18.97;34.03;100815.52;;;;-56
2020/04/16 07:34:28;;;;;;;1.65;1.55;;;;;;;18.97;34.05;100820.55;;;;-55
2020/04/16 07:37:28;;;;;;;1.86;1.72;;;;;;;18.96;34.05;100814.97;;;;-56
2020/04/16 07:40:28;;;;;;;1.85;1.66;;;;;;;18.95;34.04;100806.82;;;;-57
2020/04/16 07:43:28;;;;;;;1.84;1.69;;;;;;;18.94;34.07;100811.80;;;;-55
2020/04/16 07:46:28;;;;;;;1.66;1.56;;;;;;;18.95;34.08;100816.02;;;;-56
2020/04/16 07:49:28;;;;;;;1.97;1.61;;;;;;;18.95;34.06;100813.85;;;;-56
2020/04/16 07:52:28;;;;;;;1.53;1.43;;;;;;;18.94;34.09;100810.45;;;;-56
2020/04/16 07:55:28;;;;;;;2.04;1.70;;;;;;;18.94;34.09;100806.77;;;;-57
2020/04/16 07:58:28;;;;;;;1.70;1.60;;;;;;;18.93;34.11;100797.50;;;;-56
2020/04/16 08:01:28;;;;;;;1.65;1.55;;;;;;;18.93;34.08;100794.93;;;;-56
2020/04/16 08:04:28;;;;;;;2.62;1.73;;;;;;;18.93;34.19;100790.03;;;;-58
2020/04/16 08:07:28;;;;;;;5.65;3.75;;;;;;;18.78;32.93;100788.78;;;;-55
2020/04/16 08:10:28;;;;;;;8.35;5.20;;;;;;;18.65;31.83;100793.05;;;;-53
2020/04/16 08:13:28;;;;;;;7.72;5.26;;;;;;;18.61;32.36;100798.53;;;;-52
2020/04/16 08:19:42;;;;;;;62.30;57.34;;;;;;;18.56;32.14;100798.03;;;;-53
2020/04/16 08:22:28;;;;;;;46.15;41.77;;;;;;;18.61;32.67;100796.13;;;;-50
2020/04/16 08:25:28;;;;;;;48.95;45.01;;;;;;;18.69;32.96;100799.79;;;;-55
2020/04/16 08:28:28;;;;;;;54.45;50.07;;;;;;;18.73;33.17;100796.66;;;;-55
2020/04/16 08:31:28;;;;;;;48.53;44.75;;;;;;;18.79;33.29;100797.55;;;;-55
2020/04/16 08:34:28;;;;;;;15.71;14.26;;;;;;;18.85;33.47;100800.48;;;;-56
2020/04/16 08:37:28;;;;;;;75.99;70.06;;;;;;;18.91;33.38;100795.28;;;;-51
2020/04/16 08:40:28;;;;;;;71.21;65.65;;;;;;;18.96;33.58;100795.31;;;;-53
2020/04/16 08:43:28;;;;;;;72.42;66.75;;;;;;;19.02;33.23;100796.63;;;;-57
2020/04/16 08:46:28;;;;;;;64.65;59.67;;;;;;;19.05;33.10;100784.87;;;;-57
2020/04/16 08:49:28;;;;;;;70.41;65.00;;;;;;;19.11;33.65;100783.59;;;;-52
2020/04/16 08:52:28;;;;;;;44.63;41.09;;;;;;;19.14;33.54;100781.95;;;;-52
2020/04/16 08:55:28;;;;;;;4.23;2.77;;;;;;;19.19;33.68;100779.70;;;;-52
2020/04/16 08:58:28;;;;;;;4.75;2.65;;;;;;;19.23;33.48;100781.47;;;;-52
2020/04/16 09:01:28;;;;;;;3.80;2.59;;;;;;;19.26;33.43;100778.38;;;;-51
2020/04/16 09:04:28;;;;;;;4.09;2.61;;;;;;;19.30;33.33;100769.27;;;;-50
2020/04/16 09:07:28;;;;;;;3.87;2.39;;;;;;;19.34;33.46;100763.16;;;;-49
2020/04/16 09:10:28;;;;;;;4.58;2.45;;;;;;;19.37;33.30;100758.02;;;;-49
2020/04/16 09:13:28;;;;;;;4.12;2.49;;;;;;;19.39;33.63;100748.91;;;;-49
2020/04/16 09:16:28;;;;;;;3.40;2.51;;;;;;;19.42;33.72;100743.02;;;;-51
2020/04/16 09:19:28;;;;;;;2.88;2.50;;;;;;;19.45;33.44;100741.44;;;;-54
2020/04/16 09:22:28;;;;;;;6.51;2.54;;;;;;;19.46;34.17;100733.62;;;;-52
2020/04/16 09:25:28;;;;;;;6.59;2.59;;;;;;;19.52;34.25;100732.13;;;;-58
2020/04/16 09:28:28;;;;;;;5.01;2.37;;;;;;;19.54;34.12;100729.72;;;;-51
2020/04/16 09:31:28;;;;;;;5.39;2.28;;;;;;;19.58;34.44;100731.19;;;;-50
2020/04/16 09:34:28;;;;;;;4.59;2.27;;;;;;;19.62;34.61;100732.11;;;;-51
2020/04/16 09:37:28;;;;;;;2.62;2.13;;;;;;;19.65;34.53;100727.33;;;;-49
2020/04/16 09:40:28;;;;;;;3.28;2.21;;;;;;;19.69;34.62;100726.19;;;;-53
2020/04/16 09:43:28;;;;;;;2.57;2.36;;;;;;;19.70;34.30;100718.82;;;;-51
2020/04/16 09:46:28;;;;;;;2.35;2.15;;;;;;;19.72;34.26;100715.56;;;;-50
2020/04/16 09:49:28;;;;;;;3.36;2.07;;;;;;;19.76;34.34;100714.85;;;;-51
2020/04/16 09:52:28;;;;;;;3.03;2.31;;;;;;;19.78;34.61;100712.50;;;;-53
2020/04/16 09:55:28;;;;;;;3.80;2.20;;;;;;;19.77;33.68;100713.06;;;;-53
2020/04/16 09:58:28;;;;;;;2.98;2.41;;;;;;;19.77;33.15;100711.72;;;;-53
2020/04/16 10:01:28;;;;;;;4.67;2.19;;;;;;;19.77;33.80;100710.89;;;;-53
2020/04/16 10:04:28;;;;;;;6.10;2.39;;;;;;;19.80;34.13;100706.50;;;;-54
2020/04/16 10:07:28;;;;;;;3.83;2.20;;;;;;;19.81;34.43;100701.75;;;;-56
2020/04/16 10:10:28;;;;;;;3.44;2.31;;;;;;;19.82;34.44;100693.91;;;;-53
2020/04/16 10:13:28;;;;;;;2.69;2.15;;;;;;;19.83;34.52;100694.07;;;;-56
2020/04/16 10:16:28;;;;;;;3.79;2.05;;;;;;;19.84;34.52;100688.31;;;;-53
2020/04/16 10:19:28;;;;;;;2.31;2.11;;;;;;;19.86;34.39;100686.62;;;;-57
2020/04/16 10:22:28;;;;;;;2.70;2.22;;;;;;;19.86;34.42;100680.64;;;;-50
2020/04/16 10:25:29;;;;;;;2.25;2.03;;;;;;;19.88;34.35;100674.02;;;;-51
2020/04/16 10:28:28;;;;;;;3.89;2.10;;;;;;;19.89;34.39;100668.27;;;;-59
2020/04/16 10:31:28;;;;;;;2.83;2.08;;;;;;;19.89;34.15;100673.12;;;;-59
2020/04/16 10:34:28;;;;;;;3.15;2.06;;;;;;;19.88;33.94;100668.95;;;;-59
2020/04/16 10:37:28;;;;;;;2.48;2.09;;;;;;;19.87;33.88;100662.64;;;;-58
2020/04/16 10:40:28;;;;;;;3.11;2.10;;;;;;;19.86;33.88;100660.69;;;;-59
2020/04/16 10:43:28;;;;;;;3.37;1.98;;;;;;;19.86;33.94;100665.05;;;;-59
2020/04/16 10:46:28;;;;;;;3.59;2.03;;;;;;;19.85;33.82;100661.14;;;;-57
2020/04/16 10:49:28;;;;;;;3.61;2.10;;;;;;;19.84;33.83;100658.42;;;;-59
2020/04/16 10:52:28;;;;;;;3.03;1.89;;;;;;;19.83;33.74;100651.73;;;;-58
2020/04/16 10:55:28;;;;;;;2.77;2.13;;;;;;;19.82;33.78;100652.29;;;;-58
2020/04/16 10:58:29;;;;;;;2.62;2.11;;;;;;;19.82;33.78;100652.86;;;;-59
2020/04/16 11:01:28;;;;;;;3.23;2.03;;;;;;;19.82;33.79;100649.50;;;;-59
2020/04/16 11:04:28;;;;;;;3.34;1.98;;;;;;;19.81;33.83;100642.41;;;;-57
2020/04/16 11:07:29;;;;;;;2.53;1.95;;;;;;;19.81;33.77;100641.42;;;;-58
2020/04/16 11:10:28;;;;;;;2.14;1.87;;;;;;;19.80;33.83;100640.53;;;;-59
2020/04/16 11:13:28;;;;;;;2.22;1.90;;;;;;;19.80;33.80;100637.68;;;;-58
2020/04/16 11:16:28;;;;;;;3.01;2.10;;;;;;;19.79;33.82;100634.45;;;;-59
2020/04/16 11:19:28;;;;;;;2.12;1.93;;;;;;;19.79;33.78;100630.27;;;;-59
2020/04/16 11:22:28;;;;;;;2.30;2.00;;;;;;;19.78;33.76;100627.20;;;;-59
2020/04/16 11:25:28;;;;;;;2.77;2.24;;;;;;;19.77;33.79;100624.30;;;;-59
2020/04/16 11:28:28;;;;;;;2.62;2.03;;;;;;;19.76;33.78;100627.05;;;;-59
2020/04/16 11:31:28;;;;;;;2.39;1.89;;;;;;;19.76;33.75;100621.91;;;;-59
2020/04/16 11:34:28;;;;;;;2.52;2.00;;;;;;;19.76;33.79;100625.61;;;;-58
2020/04/16 11:37:31;;;;;;;2.35;2.11;;;;;;;19.75;33.77;100625.99;;;;-59
2020/04/16 11:40:28;;;;;;;2.66;2.07;;;;;;;19.76;33.88;100621.01;;;;-51
2020/04/16 11:43:28;;;;;;;3.64;1.97;;;;;;;19.77;34.22;100615.53;;;;-55
2020/04/16 11:46:28;;;;;;;2.37;1.95;;;;;;;19.78;34.14;100613.56;;;;-55
2020/04/16 11:49:28;;;;;;;2.97;2.19;;;;;;;19.79;34.15;100604.23;;;;-50
2020/04/16 11:52:28;;;;;;;2.70;1.95;;;;;;;19.80;34.25;100609.80;;;;-52
2020/04/16 11:55:28;;;;;;;2.60;2.02;;;;;;;19.81;34.25;100601.97;;;;-51
2020/04/16 11:58:28;;;;;;;3.37;2.21;;;;;;;19.83;34.33;100598.59;;;;-52
2020/04/16 12:01:28;;;;;;;3.42;1.99;;;;;;;19.83;34.30;100600.05;;;;-58
2020/04/16 12:04:28;;;;;;;2.31;2.11;;;;;;;19.85;34.27;100599.53;;;;-53
2020/04/16 12:07:28;;;;;;;2.20;1.90;;;;;;;19.86;34.31;100597.80;;;;-58
2020/04/16 12:10:28;;;;;;;3.66;2.01;;;;;;;19.86;34.43;100595.12;;;;-54
2020/04/16 12:13:28;;;;;;;2.11;1.90;;;;;;;19.87;34.63;100594.76;;;;-49
2020/04/16 12:16:28;;;;;;;2.51;1.87;;;;;;;19.87;34.46;100587.83;;;;-48
2020/04/16 12:19:28;;;;;;;3.22;2.07;;;;;;;19.88;34.48;100586.09;;;;-54
2020/04/16 12:22:28;;;;;;;2.19;1.87;;;;;;;19.89;34.46;100580.27;;;;-54
2020/04/16 12:25:28;;;;;;;2.15;1.93;;;;;;;19.89;34.26;100580.61;;;;-58
2020/04/16 12:28:28;;;;;;;2.18;1.97;;;;;;;19.89;34.18;100579.27;;;;-52
2020/04/16 12:31:28;;;;;;;2.23;2.03;;;;;;;19.90;34.13;100576.46;;;;-50
2020/04/16 12:34:28;;;;;;;2.60;1.98;;;;;;;19.91;34.22;100572.14;;;;-52
2020/04/16 12:37:28;;;;;;;2.12;1.95;;;;;;;19.91;34.28;100567.28;;;;-53
2020/04/16 12:40:28;;;;;;;3.04;2.19;;;;;;;19.92;34.51;100558.91;;;;-51
2020/04/16 12:43:28;;;;;;;2.48;2.06;;;;;;;19.92;34.51;100558.17;;;;-53
2020/04/16 12:46:28;;;;;;;2.25;2.00;;;;;;;19.94;34.41;100555.81;;;;-50
2020/04/16 12:49:28;;;;;;;2.34;1.95;;;;;;;19.94;34.55;100555.69;;;;-54
2020/04/16 12:52:28;;;;;;;2.75;2.14;;;;;;;19.96;34.46;100551.48;;;;-53
2020/04/16 12:55:28;;;;;;;2.29;2.00;;;;;;;19.97;34.57;100555.45;;;;-53
2020/04/16 12:58:28;;;;;;;2.69;1.89;;;;;;;19.98;34.63;100551.81;;;;-52
2020/04/16 13:01:28;;;;;;;4.57;1.99;;;;;;;20.00;34.57;100550.02;;;;-56
2020/04/16 13:04:28;;;;;;;2.53;2.19;;;;;;;20.00;34.67;100543.38;;;;-58
2020/04/16 13:07:28;;;;;;;2.77;1.87;;;;;;;20.02;34.72;100539.88;;;;-50
2020/04/16 13:10:28;;;;;;;4.58;2.12;;;;;;;20.02;34.63;100538.63;;;;-55
2020/04/16 13:13:28;;;;;;;3.03;2.11;;;;;;;20.02;34.44;100538.09;;;;-56
2020/04/16 13:16:28;;;;;;;3.54;2.14;;;;;;;20.01;34.41;100533.56;;;;-55
2020/04/16 13:19:28;;;;;;;2.17;1.90;;;;;;;20.01;34.36;100527.32;;;;-55
2020/04/16 13:25:28;;;;;;;2.24;1.99;;;;;;;20.01;34.28;100521.63;;;;-55
2020/04/16 13:28:28;;;;;;;3.72;1.99;;;;;;;19.99;34.34;100515.95;;;;-55
2020/04/16 13:31:28;;;;;;;2.46;2.08;;;;;;;19.99;34.26;100516.78;;;;-56
2020/04/16 13:34:32;;;;;;;2.48;1.97;;;;;;;19.99;34.28;100515.27;;;;-55
2020/04/16 13:37:28;;;;;;;2.41;1.95;;;;;;;19.99;34.28;100508.66;;;;-55
2020/04/16 13:40:28;;;;;;;2.06;1.86;;;;;;;19.99;34.25;100499.58;;;;-55
2020/04/16 13:43:28;;;;;;;2.53;2.00;;;;;;;19.99;34.24;100498.57;;;;-55
2020/04/16 13:46:28;;;;;;;2.22;1.81;;;;;;;19.97;34.19;100498.42;;;;-55
2020/04/16 13:49:28;;;;;;;2.30;1.88;;;;;;;19.97;34.21;100492.34;;;;-55
2020/04/16 13:52:28;;;;;;;2.59;1.99;;;;;;;19.97;34.22;100486.88;;;;-55
2020/04/16 13:55:28;;;;;;;3.61;1.97;;;;;;;19.97;34.22;100484.41;;;;-55
2020/04/16 13:58:28;;;;;;;2.28;1.96;;;;;;;19.96;34.22;100478.77;;;;-55
2020/04/16 14:01:28;;;;;;;2.45;1.85;;;;;;;19.97;34.26;100478.17;;;;-55
2020/04/16 14:04:28;;;;;;;3.61;2.10;;;;;;;19.96;34.20;100475.15;;;;-56
2020/04/16 14:07:28;;;;;;;2.07;1.71;;;;;;;19.96;34.20;100475.58;;;;-56
2020/04/16 14:10:28;;;;;;;1.95;1.80;;;;;;;19.96;34.22;100471.19;;;;-55
2020/04/16 14:13:28;;;;;;;3.07;1.90;;;;;;;19.97;34.22;100472.30;;;;-55
2020/04/16 14:16:28;;;;;;;2.19;1.83;;;;;;;19.96;34.23;100469.28;;;;-56
2020/04/16 14:19:28;;;;;;;2.21;1.95;;;;;;;19.96;34.24;100467.34;;;;-55
2020/04/16 14:22:28;;;;;;;1.80;1.70;;;;;;;19.95;34.16;100470.08;;;;-48
2020/04/16 14:25:28;;;;;;;5.65;2.00;;;;;;;19.96;34.82;100456.81;;;;-50
2020/04/16 14:28:28;;;;;;;3.15;1.93;;;;;;;19.96;35.11;100456.14;;;;-54
2020/04/16 14:31:28;;;;;;;4.71;2.09;;;;;;;19.98;35.14;100452.39;;;;-49
2020/04/16 14:34:28;;;;;;;3.55;2.09;;;;;;;19.98;35.32;100446.53;;;;-51
2020/04/16 14:37:28;;;;;;;3.79;2.07;;;;;;;19.98;35.23;100442.69;;;;-51
2020/04/16 14:40:28;;;;;;;3.50;2.21;;;;;;;19.98;34.92;100445.93;;;;-51
2020/04/16 14:43:28;;;;;;;4.13;1.99;;;;;;;19.98;34.89;100440.66;;;;-51
2020/04/16 14:46:28;;;;;;;3.63;2.09;;;;;;;19.97;34.81;100444.31;;;;-51
2020/04/16 14:49:28;;;;;;;3.71;1.90;;;;;;;19.96;34.70;100440.84;;;;-51
2020/04/16 14:52:28;;;;;;;3.69;1.85;;;;;;;19.95;34.74;100440.34;;;;-51
2020/04/16 14:55:28;;;;;;;2.63;1.98;;;;;;;19.95;34.72;100437.16;;;;-51
2020/04/16 14:58:28;;;;;;;3.65;1.89;;;;;;;19.94;34.65;100432.62;;;;-51
2020/04/16 15:01:28;;;;;;;2.15;1.95;;;;;;;19.94;34.69;100431.44;;;;-50
2020/04/16 15:04:28;;;;;;;2.41;1.91;;;;;;;19.93;34.56;100431.27;;;;-50
2020/04/16 15:07:28;;;;;;;2.97;1.93;;;;;;;19.92;34.64;100425.97;;;;-51
2020/04/16 15:10:28;;;;;;;4.41;2.27;;;;;;;19.94;34.97;100421.83;;;;-56
2020/04/16 15:13:28;;;;;;;2.99;2.09;;;;;;;19.95;35.14;100417.50;;;;-55
2020/04/16 15:16:28;;;;;;;2.53;2.01;;;;;;;19.95;35.18;100412.08;;;;-55
2020/04/16 15:19:28;;;;;;;3.61;2.01;;;;;;;19.97;35.17;100406.53;;;;-52
2020/04/16 15:22:28;;;;;;;3.55;2.09;;;;;;;19.98;35.09;100407.14;;;;-53
2020/04/16 15:25:28;;;;;;;4.95;2.10;;;;;;;19.96;35.26;100402.84;;;;-51
2020/04/16 15:28:28;;;;;;;4.04;1.91;;;;;;;19.99;35.29;100409.43;;;;-51
2020/04/16 15:31:28;;;;;;;3.66;2.14;;;;;;;19.99;35.27;100408.42;;;;-51
2020/04/16 15:34:28;;;;;;;9.95;2.14;;;;;;;19.99;35.38;100397.86;;;;-55
2020/04/16 15:37:28;;;;;;;3.17;2.06;;;;;;;20.00;35.26;100398.41;;;;-48
2020/04/16 15:40:28;;;;;;;3.38;2.02;;;;;;;20.00;35.30;100397.23;;;;-49
2020/04/16 15:43:28;;;;;;;3.79;2.08;;;;;;;20.00;35.38;100393.21;;;;-55
2020/04/16 15:46:28;;;;;;;3.46;2.20;;;;;;;20.01;35.25;100395.16;;;;-51
2020/04/16 15:49:29;;;;;;;4.39;2.06;;;;;;;20.01;35.36;100388.63;;;;-51
2020/04/16 15:52:28;;;;;;;2.69;2.15;;;;;;;20.02;35.34;100389.00;;;;-56
2020/04/16 15:55:28;;;;;;;3.78;1.95;;;;;;;20.03;35.37;100385.69;;;;-57
2020/04/16 15:58:28;;;;;;;3.61;2.10;;;;;;;20.04;35.25;100386.47;;;;-46
2020/04/16 16:01:28;;;;;;;3.60;2.01;;;;;;;20.04;35.20;100378.75;;;;-59
2020/04/16 16:04:28;;;;;;;3.59;2.10;;;;;;;20.05;35.21;100378.39;;;;-49
2020/04/16 16:07:28;;;;;;;2.84;1.98;;;;;;;20.05;35.08;100375.78;;;;-58
2020/04/16 16:10:28;;;;;;;4.40;2.23;;;;;;;20.05;35.09;100374.20;;;;-60
2020/04/16 16:13:28;;;;;;;3.75;1.99;;;;;;;20.05;34.98;100373.77;;;;-56
2020/04/16 16:16:28;;;;;;;2.73;2.06;;;;;;;20.05;35.03;100373.80;;;;-54
2020/04/16 16:19:28;;;;;;;2.07;1.89;;;;;;;20.07;35.01;100373.17;;;;-58
2020/04/16 16:22:28;;;;;;;4.47;2.00;;;;;;;20.07;35.14;100374.62;;;;-49
2020/04/16 16:25:28;;;;;;;2.55;2.21;;;;;;;20.08;35.22;100377.34;;;;-51
2020/04/16 16:28:28;;;;;;;2.31;1.93;;;;;;;20.08;35.10;100373.72;;;;-52
2020/04/16 16:31:28;;;;;;;3.66;1.98;;;;;;;20.09;35.26;100373.09;;;;-48
2020/04/16 16:34:28;;;;;;;3.07;1.96;;;;;;;20.10;35.23;100369.88;;;;-53
2020/04/16 16:37:28;;;;;;;2.30;2.04;;;;;;;20.10;35.21;100372.23;;;;-51
2020/04/16 16:40:28;;;;;;;2.40;1.97;;;;;;;20.10;35.14;100364.69;;;;-55
2020/04/16 16:43:28;;;;;;;2.28;1.93;;;;;;;20.10;35.18;100361.16;;;;-53
2020/04/16 16:46:28;;;;;;;2.65;1.93;;;;;;;20.11;35.26;100359.59;;;;-49
2020/04/16 16:49:28;;;;;;;2.31;2.05;;;;;;;20.11;35.14;100354.56;;;;-58
2020/04/16 16:52:28;;;;;;;3.38;1.91;;;;;;;20.11;35.03;100353.22;;;;-57